Time;durP1;ratioP1;P1;durP2;ratioP2;P2;SDS_P1;SDS_P2;PMS_P1;PMS_P2;Temp;Humidity;BMP_temperature;BMP_pressure;BME280_temperature;BME280_humidity;BME280_pressure;Samples;Min_cycle;Max_cycle;Signal;HPM_P1;HPM_P2
2024/02/16 00:03:33;;;;;;;28.83;17.23;;;;;;;9.83;100.00;100980.33;4996050;58;1142960;-86
2024/02/16 00:08:39;;;;;;;31.03;16.90;;;;;;;9.78;100.00;100973.17;4999745;58;1142718;-83
2024/02/16 00:13:44;;;;;;;37.95;19.70;;;;;;;9.75;100.00;100977.84;4937846;59;1143854;-88
2024/02/16 00:18:50;;;;;;;26.43;15.67;;;;;;;9.73;100.00;100985.02;4877713;59;1142937;-82
2024/02/16 00:23:56;;;;;;;33.35;16.50;;;;;;;9.70;100.00;100978.14;4930644;58;1142671;-86
2024/02/16 00:29:02;;;;;;;46.07;21.20;;;;;;;9.67;100.00;100976.17;4892130;59;1142658;-79
2024/02/16 00:34:07;;;;;;;35.53;19.37;;;;;;;9.64;100.00;100973.25;4898720;59;1142770;-83
2024/02/16 00:39:14;;;;;;;29.40;16.13;;;;;;;9.62;100.00;100971.21;4920531;59;1142767;-82
2024/02/16 00:44:20;;;;;;;33.50;17.47;;;;;;;9.60;100.00;100974.90;4870224;59;1143037;-83
2024/02/16 00:49:26;;;;;;;35.70;16.47;;;;;;;9.62;100.00;100976.49;4859979;59;1143005;-87
2024/02/16 00:54:32;;;;;;;31.85;16.85;;;;;;;9.66;100.00;100977.11;4861500;59;1143052;-84
2024/02/16 00:59:37;;;;;;;24.60;15.00;;;;;;;9.69;100.00;100978.23;4963865;59;1143158;-87
2024/02/16 01:04:43;;;;;;;24.90;15.07;;;;;;;9.68;100.00;100979.19;4923111;58;1142591;-87
2024/02/16 01:09:48;;;;;;;28.25;15.05;;;;;;;9.62;100.00;100974.33;4934695;59;1143165;-82
2024/02/16 01:14:54;;;;;;;31.10;17.37;;;;;;;9.59;100.00;100975.84;4965265;58;1142763;-86
2024/02/16 01:20:00;;;;;;;28.17;14.83;;;;;;;9.58;100.00;100967.08;4935622;58;1143421;-81
2024/02/16 01:25:08;;;;;;;35.17;20.33;;;;;;;9.59;100.00;100969.24;4847091;60;1142733;-82
2024/02/16 01:30:15;;;;;;;33.03;16.83;;;;;;;9.60;100.00;100970.94;4926263;59;1143087;-82
2024/02/16 01:35:20;;;;;;;26.20;15.53;;;;;;;9.62;100.00;100964.61;4856534;60;1142577;-84
2024/02/16 01:40:27;;;;;;;23.20;14.83;;;;;;;9.62;100.00;100965.09;4851375;59;1142684;-81
2024/02/16 01:45:36;;;;;;;26.67;15.20;;;;;;;9.57;100.00;100955.29;4930405;58;1142886;-81
2024/02/16 01:50:43;;;;;;;30.50;16.67;;;;;;;9.55;100.00;100954.55;4850271;60;1142949;-87
2024/02/16 01:55:49;;;;;;;27.43;14.43;;;;;;;9.53;100.00;100948.89;4949238;58;1142735;-85
2024/02/16 02:00:55;;;;;;;26.23;13.63;;;;;;;9.48;100.00;100944.38;4843109;59;1142885;-81
2024/02/16 02:06:00;;;;;;;24.23;14.60;;;;;;;9.46;100.00;100948.94;4982143;58;1143424;-81
2024/02/16 02:11:06;;;;;;;30.10;13.97;;;;;;;9.44;100.00;100941.59;4981499;57;1143232;-82
2024/02/16 02:16:13;;;;;;;22.63;14.17;;;;;;;9.46;100.00;100946.30;5008749;57;1143431;-81
2024/02/16 02:21:19;;;;;;;26.97;15.40;;;;;;;9.44;100.00;100946.87;5059115;57;1143561;-85
2024/02/16 02:26:25;;;;;;;21.80;13.87;;;;;;;9.44;100.00;100946.02;5080336;57;1143009;-89
2024/02/16 02:31:31;;;;;;;24.50;14.93;;;;;;;9.46;100.00;100952.05;4929007;58;1142962;-86
2024/02/16 02:36:36;;;;;;;25.90;15.70;;;;;;;9.47;100.00;100942.67;4868038;59;1143041;-86
2024/02/16 02:41:43;;;;;;;27.40;15.40;;;;;;;9.40;100.00;100949.80;4814841;60;1143069;-85
2024/02/16 02:46:48;;;;;;;27.87;16.47;;;;;;;9.35;100.00;100944.81;4822531;60;1142978;-86
2024/02/16 02:51:54;;;;;;;23.23;14.53;;;;;;;9.30;100.00;100948.72;4805395;60;1143350;-80
2024/02/16 02:56:59;;;;;;;21.20;14.47;;;;;;;9.30;100.00;100948.25;4905132;58;1142814;-83
2024/02/16 03:02:05;;;;;;;26.53;15.67;;;;;;;9.32;100.00;100937.09;4982163;57;1142860;-85
2024/02/16 03:07:11;;;;;;;30.03;17.70;;;;;;;9.32;100.00;100937.59;4833647;58;1142910;-82
2024/02/16 03:12:16;;;;;;;26.30;16.20;;;;;;;9.25;100.00;100933.17;4957978;57;1142698;-84
2024/02/16 03:17:22;;;;;;;25.67;15.80;;;;;;;9.22;100.00;100931.20;4934313;57;1142639;-84
2024/02/16 03:22:27;;;;;;;27.03;17.13;;;;;;;9.17;100.00;100937.62;4928557;59;1142724;-85
2024/02/16 03:27:33;;;;;;;24.10;15.50;;;;;;;9.13;100.00;100929.55;4917210;59;1144145;-85
2024/02/16 03:32:39;;;;;;;30.10;16.70;;;;;;;9.13;100.00;100929.55;4946619;58;1143217;-85
2024/02/16 03:37:45;;;;;;;29.37;16.47;;;;;;;9.11;100.00;100928.80;4944903;58;1143106;-84
2024/02/16 03:42:52;;;;;;;32.20;19.73;;;;;;;9.11;100.00;100930.59;4990855;58;1143179;-85
2024/02/16 03:47:58;;;;;;;26.10;17.27;;;;;;;9.07;100.00;100922.49;5021575;57;1142900;-82
2024/02/16 03:53:04;;;;;;;24.80;17.03;;;;;;;9.06;100.00;100926.92;5004529;58;1143250;-82
2024/02/16 03:58:09;;;;;;;27.98;18.48;;;;;;;9.03;100.00;100928.91;4922319;58;1143389;-83
2024/02/16 04:03:15;;;;;;;31.95;17.77;;;;;;;8.99;100.00;100932.23;4938372;58;1143119;-80
2024/02/16 04:08:21;;;;;;;30.17;18.23;;;;;;;8.96;100.00;100933.75;5006562;58;1143055;-80
2024/02/16 04:13:27;;;;;;;29.50;17.40;;;;;;;8.91;100.00;100928.38;4926083;59;1142978;-82
2024/02/16 04:18:32;;;;;;;28.00;18.00;;;;;;;8.89;100.00;100927.16;4906629;59;1149294;-78
2024/02/16 04:23:38;;;;;;;25.20;17.07;;;;;;;8.89;100.00;100927.63;4810891;59;1143141;-84
2024/02/16 04:28:43;;;;;;;33.27;16.27;;;;;;;8.89;100.00;100930.27;4912968;59;1142890;-82
2024/02/16 04:33:49;;;;;;;26.60;15.83;;;;;;;8.89;100.00;100928.48;4832006;59;1143027;-83
2024/02/16 04:38:55;;;;;;;25.17;16.00;;;;;;;8.93;100.00;100922.07;4840218;59;1143217;-89
2024/02/16 04:44:00;;;;;;;28.20;17.67;;;;;;;8.96;100.00;100923.67;4706020;60;1142933;-84
2024/02/16 04:49:06;;;;;;;28.17;18.20;;;;;;;8.96;100.00;100921.03;4768573;60;1142865;-83
2024/02/16 04:54:12;;;;;;;29.07;17.52;;;;;;;8.89;100.00;100910.48;4821803;59;1143115;-81
2024/02/16 04:59:18;;;;;;;31.07;19.03;;;;;;;8.85;100.00;100913.81;4850469;59;1143260;-81
2024/02/16 05:04:24;;;;;;;29.37;19.13;;;;;;;8.83;100.00;100914.85;4905767;59;1142809;-87
2024/02/16 05:09:29;;;;;;;33.70;19.80;;;;;;;8.79;100.00;100911.09;4872442;59;1143028;-85
2024/02/16 05:14:36;;;;;;;29.90;18.13;;;;;;;8.74;100.00;100903.93;4767574;59;1143051;-84
2024/02/16 05:19:41;;;;;;;28.87;15.47;;;;;;;8.67;100.00;100909.70;5013291;57;1142956;-86
2024/02/16 05:24:48;;;;;;;26.03;15.60;;;;;;;8.63;100.00;100907.73;5078641;57;1143408;-86
2024/02/16 05:29:54;;;;;;;32.33;17.20;;;;;;;8.61;100.00;100903.49;5082866;57;1142937;-85
2024/02/16 05:34:59;;;;;;;29.90;17.77;;;;;;;8.55;100.00;100900.80;5022968;57;1144069;-81
2024/02/16 05:40:18;;;;;;;30.27;15.93;;;;;;;8.48;100.00;100898.63;4982408;58;1143101;-82
2024/02/16 05:45:16;;;;;;;28.87;15.53;;;;;;;8.43;100.00;100912.08;5009151;57;1142728;-79
2024/02/16 05:50:23;;;;;;;27.87;16.17;;;;;;;8.38;100.00;100908.44;5013675;57;1142698;-79
2024/02/16 05:55:29;;;;;;;31.70;19.60;;;;;;;8.37;100.00;100909.84;5066075;57;1143357;-80
2024/02/16 06:00:36;;;;;;;28.50;15.80;;;;;;;8.36;100.00;100918.69;5028293;56;1143171;-81
2024/02/16 06:05:44;;;;;;;33.43;16.07;;;;;;;8.35;100.00;100918.31;5036598;57;1143432;-82
2024/02/16 06:10:53;;;;;;;32.10;18.60;;;;;;;8.34;100.00;100913.98;5109677;57;1142772;-79
2024/02/16 06:15:56;;;;;;;38.10;21.77;;;;;;;8.31;100.00;100912.81;5023098;57;1142816;-80
2024/02/16 06:21:02;;;;;;;92.97;34.83;;;;;;;8.22;100.00;100912.92;4931523;58;1142682;-77
2024/02/16 06:26:08;;;;;;;38.70;20.60;;;;;;;8.13;100.00;100914.79;4911127;57;1143680;-76
2024/02/16 06:31:15;;;;;;;33.13;18.00;;;;;;;8.06;100.00;100911.70;4993718;57;1143313;-78
2024/02/16 06:36:20;;;;;;;28.23;15.57;;;;;;;8.00;100.00;100910.73;4990399;57;1143077;-77
2024/02/16 06:41:26;;;;;;;27.22;16.42;;;;;;;7.94;100.00;100912.45;4932451;57;1142768;-76
2024/02/16 06:46:32;;;;;;;37.60;18.12;;;;;;;7.96;100.00;100922.86;4976134;56;1143300;-77
2024/02/16 06:51:38;;;;;;;47.08;35.60;;;;;;;7.98;100.00;100919.20;4980346;57;1142864;-75
2024/02/16 06:56:44;;;;;;;28.42;16.70;;;;;;;8.02;100.00;100922.03;4946392;58;1143281;-78
2024/02/16 07:01:49;;;;;;;27.00;16.77;;;;;;;8.14;100.00;100932.30;4968411;57;1143363;-82
2024/02/16 07:06:55;;;;;;;29.40;16.73;;;;;;;8.27;100.00;100924.48;5025967;56;1143219;-81
2024/02/16 07:12:00;;;;;;;52.63;26.00;;;;;;;8.33;100.00;100927.63;5029411;57;1142711;-80
2024/02/16 07:17:09;;;;;;;32.77;19.43;;;;;;;8.33;100.00;100928.95;4915193;57;1143026;-78
2024/02/16 07:22:13;;;;;;;31.67;17.43;;;;;;;8.42;100.00;100919.61;5023321;57;1143141;-77
2024/02/16 07:27:19;;;;;;;34.37;15.97;;;;;;;8.53;100.00;100909.27;4960653;57;1143378;-80
2024/02/16 07:32:24;;;;;;;25.77;16.17;;;;;;;8.68;100.00;100906.12;4905095;58;1143380;-80
2024/02/16 07:37:30;;;;;;;33.57;20.07;;;;;;;8.84;100.00;100902.05;4771701;58;1142932;-80
2024/02/16 07:42:42;;;;;;;30.40;20.07;;;;;;;8.95;100.00;100887.20;4619738;62;1143035;-80
2024/02/16 07:47:48;;;;;;;27.70;16.57;;;;;;;9.21;100.00;100888.13;4798367;60;1142978;-80
2024/02/16 07:52:53;;;;;;;28.30;16.20;;;;;;;9.41;100.00;100889.45;4761785;60;1143421;-80
2024/02/16 07:57:59;;;;;;;29.95;15.55;;;;;;;9.61;100.00;100886.33;4668314;58;1143256;-79
2024/02/16 08:03:05;;;;;;;36.53;22.80;;;;;;;10.03;100.00;100875.92;4947204;57;1143134;-81
2024/02/16 08:08:10;;;;;;;26.60;18.00;;;;;;;10.03;100.00;100875.92;4962653;57;1144875;-80
2024/02/16 08:13:16;;;;;;;32.10;18.03;;;;;;;10.19;100.00;100887.16;4947675;57;1144727;-81
2024/02/16 08:18:21;;;;;;;28.17;17.20;;;;;;;10.42;100.00;100884.67;5020130;57;1144783;-80
2024/02/16 08:23:27;;;;;;;30.63;17.47;;;;;;;10.57;100.00;100890.19;4913737;58;1145898;-77
2024/02/16 08:28:33;;;;;;;32.23;18.43;;;;;;;10.67;100.00;100887.27;4837747;58;1145244;-74
2024/02/16 08:33:38;;;;;;;24.13;15.53;;;;;;;10.81;100.00;100883.14;4841972;58;1145247;-80
2024/02/16 08:38:44;;;;;;;26.93;15.70;;;;;;;10.92;100.00;100880.55;4759263;60;1144694;-79
2024/02/16 08:43:50;;;;;;;23.27;15.48;;;;;;;11.04;100.00;100881.92;4941687;57;1154498;-82
2024/02/16 08:48:55;;;;;;;25.33;15.87;;;;;;;11.20;100.00;100881.16;4885332;58;1145564;-79
2024/02/16 08:54:01;;;;;;;25.23;16.13;;;;;;;11.29;100.00;100873.87;4949341;57;1145391;-75
2024/02/16 08:59:07;;;;;;;23.80;14.97;;;;;;;11.45;100.00;100870.44;4932819;57;1238702;-77
2024/02/16 09:04:13;;;;;;;27.73;14.20;;;;;;;11.62;100.00;100875.75;4893789;57;1145232;-79
2024/02/16 09:09:22;;;;;;;35.00;14.17;;;;;;;11.74;100.00;100871.34;4932604;57;1145089;-76
2024/02/16 09:14:28;;;;;;;20.67;13.00;;;;;;;11.88;100.00;100881.27;4902134;57;1145251;-79
2024/02/16 09:19:33;;;;;;;38.33;20.67;;;;;;;11.99;100.00;100883.08;4933037;56;1145348;-79
2024/02/16 09:24:40;;;;;;;19.00;12.07;;;;;;;12.14;100.00;100882.37;4999307;57;1145049;-80
2024/02/16 09:29:46;;;;;;;23.13;13.47;;;;;;;12.31;100.00;100884.06;4967482;57;1145071;-77
2024/02/16 09:34:51;;;;;;;19.67;11.83;;;;;;;12.39;100.00;100875.96;4944746;57;1145091;-80
2024/02/16 09:39:57;;;;;;;16.80;10.80;;;;;;;12.46;100.00;100882.48;4954758;57;1145128;-78
2024/02/16 09:45:03;;;;;;;22.47;12.30;;;;;;;12.55;100.00;100880.41;4957751;57;1145151;-79
2024/02/16 09:50:09;;;;;;;17.93;11.13;;;;;;;12.50;100.00;100876.81;4844636;57;1145210;-79
2024/02/16 09:55:16;;;;;;;24.27;11.43;;;;;;;12.46;100.00;100879.34;4921639;57;1145172;-77
2024/02/16 10:00:22;;;;;;;16.50;10.93;;;;;;;12.42;100.00;100876.57;4903979;58;1144897;-77
2024/02/16 10:05:30;;;;;;;17.33;11.03;;;;;;;12.35;100.00;100875.38;4869442;58;1144947;-77
2024/02/16 10:10:37;;;;;;;20.00;11.17;;;;;;;12.31;100.00;100867.30;4869866;58;1144730;-78
2024/02/16 10:15:42;;;;;;;20.90;13.47;;;;;;;12.33;100.00;100869.35;4829425;58;1144925;-78
2024/02/16 10:20:53;;;;;;;23.10;13.03;;;;;;;12.44;100.00;100860.05;4758844;59;1145124;-77
2024/02/16 10:25:59;;;;;;;25.10;13.00;;;;;;;12.53;100.00;100862.44;4841944;58;1144916;-78
2024/02/16 10:31:05;;;;;;;15.80;10.67;;;;;;;12.52;100.00;100853.66;4861878;59;1145070;-78
2024/02/16 10:36:11;;;;;;;21.77;14.00;;;;;;;12.51;100.00;100844.02;4844140;59;1145021;-79
2024/02/16 10:41:20;;;;;;;23.77;13.40;;;;;;;12.55;100.00;100832.16;4934791;58;1144917;-79
2024/02/16 10:46:26;;;;;;;20.68;13.15;;;;;;;12.61;100.00;100825.05;4892317;58;1144874;-79
2024/02/16 10:51:48;;;;;;;21.25;12.82;;;;;;;12.73;100.00;100812.59;4917244;58;1145578;-79
2024/02/16 10:56:55;;;;;;;22.10;10.87;;;;;;;12.77;100.00;100798.10;4891808;59;1144901;-78
2024/02/16 11:02:02;;;;;;;19.90;11.63;;;;;;;12.85;100.00;100802.77;4941393;58;1145094;-77
2024/02/16 11:07:19;;;;;;;22.97;12.60;;;;;;;12.94;100.00;100805.52;4829477;59;1144922;-78
2024/02/16 11:12:46;;;;;;;;;;;;;;;;;;;;;
2024/02/16 11:23:46;;;;;;;15.63;10.40;;;;;;;13.08;100.00;100789.77;5143143;54;46483;-78
2024/02/16 11:28:56;;;;;;;18.50;9.67;;;;;;;13.11;100.00;100793.50;4935101;58;1140509;-78
2024/02/16 11:34:04;;;;;;;16.33;10.17;;;;;;;13.22;100.00;100780.66;4803179;58;1143085;-79
2024/02/16 11:39:26;;;;;;;15.97;10.83;;;;;;;13.33;100.00;100776.61;4702823;58;1144591;-78
2024/02/16 11:50:14;;;;;;;14.10;9.87;;;;;;;13.43;100.00;100773.55;4646676;62;1142794;-79
2024/02/16 11:55:48;;;;;;;13.43;10.00;;;;;;;13.30;100.00;100773.72;4656508;61;1142804;-79
2024/02/16 12:13:10;;;;;;;14.50;9.33;;;;;;;13.22;100.00;100748.80;5485070;53;46767;-78
2024/02/16 12:18:23;;;;;;;14.87;7.70;;;;;;;13.04;100.00;100753.81;5252982;55;1138451;-78
2024/02/16 12:23:34;;;;;;;19.47;11.03;;;;;;;13.09;100.00;100745.47;5187895;55;1143213;-78
2024/02/16 12:28:48;;;;;;;28.07;18.73;;;;;;;13.19;100.00;100746.39;4943012;57;1145136;-77
2024/02/16 12:33:53;;;;;;;19.57;12.30;;;;;;;13.26;100.00;100747.56;5239020;54;1145130;-78
2024/02/16 12:39:05;;;;;;;42.43;21.77;;;;;;;13.27;100.00;100740.80;5229189;54;1146702;-77
2024/02/16 12:44:08;;;;;;;13.07;8.80;;;;;;;13.31;100.00;100728.92;5143271;54;1145264;-77
2024/02/16 13:00:43;;;;;;;15.47;10.43;;;;;;;13.72;100.00;100717.38;4595015;59;1143352;-77
2024/02/16 13:05:56;;;;;;;13.35;8.33;;;;;;;13.79;100.00;100716.34;4688654;61;1145147;-77
2024/02/16 13:11:05;;;;;;;18.50;9.43;;;;;;;13.80;100.00;100715.85;4657718;61;1142774;-77
2024/02/16 13:16:18;;;;;;;22.67;13.33;;;;;;;13.83;100.00;100710.27;4759713;58;1142888;-76
2024/02/16 13:21:22;;;;;;;12.27;7.73;;;;;;;13.94;100.00;100695.05;4764349;59;1145100;-77
2024/02/16 13:26:28;;;;;;;16.17;7.70;;;;;;;13.96;100.00;100694.42;4803091;59;1142926;-77
2024/02/16 13:37:29;;;;;;;14.17;10.13;;;;;;;14.06;100.00;100693.10;4351673;65;1143368;-77
2024/02/16 13:42:46;;;;;;;11.83;8.30;;;;;;;14.11;100.00;100689.55;4390240;65;1144993;-77
2024/02/16 13:48:23;;;;;;;;;;;;;;;;;;;;;
2024/02/16 13:53:52;;;;;;;16.33;7.33;;;;;;;14.13;100.00;100682.28;5218438;55;46604;-78
2024/02/16 13:58:58;;;;;;;11.67;7.00;;;;;;;13.96;100.00;100684.27;5026102;57;1138769;-78
2024/02/16 14:04:04;;;;;;;23.03;10.13;;;;;;;13.81;100.00;100687.80;5035941;56;1142908;-78
2024/02/16 14:09:13;;;;;;;19.93;11.43;;;;;;;13.75;100.00;100685.67;5060343;56;1145049;-78
2024/02/16 14:14:17;;;;;;;26.37;15.10;;;;;;;13.75;100.00;100687.52;5044036;56;1144802;-79
2024/02/16 14:19:23;;;;;;;14.87;8.35;;;;;;;13.72;100.00;100683.31;5012124;56;1144909;-79
2024/02/16 14:24:28;;;;;;;27.75;16.62;;;;;;;13.71;100.00;100684.29;5060040;56;1143071;-79
2024/02/16 14:29:34;;;;;;;11.43;7.27;;;;;;;13.67;100.00;100684.20;5043116;56;1145394;-78
2024/02/16 14:34:51;;;;;;;;;;;;;;;;;;;;;
2024/02/16 14:39:57;;;;;;;11.33;7.55;;;;;;;13.63;100.00;100680.95;4933358;56;1142431;-79
2024/02/16 14:45:38;;;;;;;11.97;7.40;;;;;;;13.59;100.00;100682.71;4729256;58;1142817;-79
2024/02/16 14:56:56;;;;;;;15.17;7.90;;;;;;;13.47;100.00;100675.30;4801406;58;1138852;-77
2024/02/16 15:02:02;;;;;;;20.17;8.97;;;;;;;13.43;100.00;100672.58;4901246;58;1143116;-77
2024/02/16 15:07:09;;;;;;;17.73;7.80;;;;;;;13.38;100.00;100666.33;4892882;58;1142944;-77
2024/02/16 15:12:18;;;;;;;13.67;7.27;;;;;;;13.37;100.00;100662.47;4944820;58;1143177;-77
2024/02/16 15:17:22;;;;;;;9.67;6.63;;;;;;;13.32;100.00;100668.17;4921040;57;1142997;-78
2024/02/16 15:22:28;;;;;;;14.05;8.35;;;;;;;13.31;100.00;100667.82;4950243;58;1141021;-78
2024/02/16 15:27:35;;;;;;;17.65;9.60;;;;;;;13.28;100.00;100661.47;4906348;58;1142717;-79
2024/02/16 15:32:40;;;;;;;18.03;8.77;;;;;;;13.25;100.00;100660.89;4881556;59;1143198;-77
2024/02/16 15:37:46;;;;;;;23.07;9.87;;;;;;;13.21;100.00;100662.95;4926212;58;1142902;-77
2024/02/16 15:43:07;;;;;;;19.37;8.97;;;;;;;13.20;100.00;100661.77;4969385;58;1142887;-77
2024/02/16 15:48:15;;;;;;;38.07;13.37;;;;;;;13.17;100.00;100672.16;4967761;58;1142939;-76
2024/02/16 15:53:21;;;;;;;16.93;8.00;;;;;;;13.15;100.00;100663.47;4938642;58;1145496;-77
2024/02/16 15:58:26;;;;;;;26.45;10.68;;;;;;;13.13;100.00;100671.22;4886882;57;1142936;-77
2024/02/16 16:03:32;;;;;;;28.87;12.20;;;;;;;13.12;100.00;100670.86;5121313;55;1144968;-78
2024/02/16 16:08:40;;;;;;;71.22;28.40;;;;;;;13.09;100.00;100666.64;5084460;56;1145021;-78
2024/02/16 16:13:45;;;;;;;32.60;14.37;;;;;;;13.08;100.00;100664.11;5067828;56;1145226;-79
2024/02/16 16:18:51;;;;;;;21.77;10.68;;;;;;;13.05;100.00;100666.55;5023808;57;1145173;-79
2024/02/16 16:23:57;;;;;;;19.37;10.17;;;;;;;13.02;100.00;100657.50;5170976;55;1145015;-78
2024/02/16 16:29:03;;;;;;;18.52;8.85;;;;;;;12.99;100.00;100659.93;5166367;55;1144549;-78
2024/02/16 16:34:09;;;;;;;19.43;9.63;;;;;;;13.00;100.00;100666.92;5161914;55;1143058;-78
2024/02/16 16:39:16;;;;;;;18.37;8.50;;;;;;;12.97;100.00;100662.39;5219622;55;1142894;-78
2024/02/16 16:44:22;;;;;;;17.00;8.67;;;;;;;12.93;100.00;100656.98;5180526;55;1142821;-80
2024/02/16 16:49:28;;;;;;;17.30;10.20;;;;;;;12.93;100.00;100656.98;5161500;55;1143142;-78
2024/02/16 16:54:35;;;;;;;12.20;8.75;;;;;;;12.92;100.00;100655.29;5184849;55;1145245;-80
2024/02/16 16:59:40;;;;;;;49.33;25.00;;;;;;;12.91;100.00;100657.59;5133724;55;1142732;-78
2024/02/16 17:04:46;;;;;;;42.27;25.03;;;;;;;12.93;100.00;100658.30;5034120;57;1144938;-78
2024/02/16 17:09:54;;;;;;;45.13;25.07;;;;;;;12.91;100.00;100662.41;5022045;56;1144877;-78
2024/02/16 17:14:59;;;;;;;16.13;8.50;;;;;;;12.88;100.00;100661.34;5025122;56;1145197;-80
2024/02/16 17:20:06;;;;;;;12.17;8.23;;;;;;;12.88;100.00;100660.50;5079890;56;1142963;-79
2024/02/16 17:25:11;;;;;;;27.50;12.93;;;;;;;12.89;100.00;100656.88;5109034;56;1142803;-79
2024/02/16 17:30:19;;;;;;;18.73;9.83;;;;;;;12.88;100.00;100657.84;5105933;56;1145068;-79
2024/02/16 17:35:24;;;;;;;22.67;12.45;;;;;;;12.86;100.00;100654.47;5117051;56;1142808;-79
2024/02/16 17:40:30;;;;;;;21.80;11.50;;;;;;;12.86;100.00;100650.49;5098081;56;1145012;-78
2024/02/16 17:45:38;;;;;;;16.17;9.77;;;;;;;12.84;100.00;100654.60;5072564;56;1145077;-78
2024/02/16 17:50:44;;;;;;;19.07;9.68;;;;;;;12.85;100.00;100654.95;5102990;56;1142986;-80
2024/02/16 17:55:50;;;;;;;19.97;11.77;;;;;;;12.86;100.00;100659.30;5097314;55;1143047;-80
2024/02/16 18:00:56;;;;;;;16.30;9.60;;;;;;;12.84;100.00;100659.06;5068456;56;1145267;-78
2024/02/16 18:06:02;;;;;;;11.87;8.23;;;;;;;12.80;100.00;100661.16;5057061;55;1143009;-80
2024/02/16 18:11:08;;;;;;;42.30;23.43;;;;;;;12.79;100.00;100670.09;5116473;56;1142614;-79
2024/02/16 18:16:17;;;;;;;17.00;9.50;;;;;;;12.75;100.00;100667.33;5076011;55;1144797;-78
2024/02/16 18:21:21;;;;;;;18.27;10.00;;;;;;;12.72;100.00;100668.07;5026935;56;1142916;-81
2024/02/16 18:26:28;;;;;;;13.10;8.05;;;;;;;12.66;100.00;100670.77;5115309;56;1145237;-81
2024/02/16 18:31:35;;;;;;;18.75;10.05;;;;;;;12.58;100.00;100659.94;5107440;56;1143033;-80
2024/02/16 18:36:40;;;;;;;15.93;9.53;;;;;;;12.61;100.00;100669.83;5069944;56;1145039;-79
2024/02/16 18:41:46;;;;;;;19.70;9.23;;;;;;;12.55;100.00;100669.00;5072952;55;1143119;-80
2024/02/16 18:46:52;;;;;;;27.43;11.80;;;;;;;12.53;100.00;100666.11;5145214;55;1142812;-79
2024/02/16 18:51:57;;;;;;;35.83;15.83;;;;;;;12.49;100.00;100670.85;4973869;57;1144765;-80
2024/02/16 18:57:06;;;;;;;32.20;16.43;;;;;;;12.46;100.00;100679.55;4939374;58;1145028;-79
2024/02/16 19:02:10;;;;;;;36.87;15.60;;;;;;;12.44;100.00;100687.63;5079633;56;1145042;-79
2024/02/16 19:07:16;;;;;;;20.33;11.73;;;;;;;12.40;100.00;100686.67;5052004;56;1145058;-80
2024/02/16 19:12:22;;;;;;;17.47;10.83;;;;;;;12.32;100.00;100698.77;5070042;56;1145112;-78
2024/02/16 19:17:28;;;;;;;65.08;23.42;;;;;;;12.32;100.00;100698.77;5039467;57;1145008;-78
2024/02/16 19:22:33;;;;;;;37.35;14.38;;;;;;;12.34;100.00;100697.32;4912064;56;1144954;-80
2024/02/16 19:27:39;;;;;;;27.43;12.83;;;;;;;12.33;100.00;100700.45;4935041;57;1145341;-80
2024/02/16 19:32:45;;;;;;;115.37;35.50;;;;;;;12.31;100.00;100704.19;5038841;56;1144874;-80
2024/02/16 19:37:51;;;;;;;212.20;62.97;;;;;;;12.26;100.00;100691.78;5054940;56;1147120;-78
2024/02/16 19:42:57;;;;;;;61.50;21.67;;;;;;;12.17;100.00;100687.24;5058683;56;1147043;-80
2024/02/16 19:48:02;;;;;;;24.07;11.17;;;;;;;12.08;100.00;100686.65;5077344;56;1144953;-78
2024/02/16 19:53:09;;;;;;;25.43;12.97;;;;;;;11.98;100.00;100691.86;5072470;56;1144922;-78
2024/02/16 19:58:15;;;;;;;31.37;14.00;;;;;;;11.91;100.00;100689.36;5042243;56;1145087;-82
2024/02/16 20:03:21;;;;;;;26.53;12.27;;;;;;;11.86;100.00;100686.23;5049833;57;1145219;-80
2024/02/16 20:08:28;;;;;;;21.62;10.48;;;;;;;11.85;100.00;100685.87;5045832;56;1144618;-80
2024/02/16 20:13:34;;;;;;;15.55;8.30;;;;;;;11.81;100.00;100692.37;5094184;56;1145332;-80
2024/02/16 20:18:40;;;;;;;18.67;9.20;;;;;;;11.76;100.00;100692.76;5083102;56;1143203;-81
2024/02/16 20:23:46;;;;;;;18.93;10.40;;;;;;;11.74;100.00;100693.33;5025366;57;1142898;-80
2024/02/16 20:28:52;;;;;;;15.27;8.70;;;;;;;11.69;100.00;100694.16;4998090;56;1144867;-83
2024/02/16 20:33:58;;;;;;;19.67;9.43;;;;;;;11.64;100.00;100691.03;4919338;57;1142906;-82
2024/02/16 20:39:03;;;;;;;15.13;9.47;;;;;;;11.61;100.00;100689.45;4944326;57;1143332;-81
2024/02/16 20:44:09;;;;;;;19.80;9.77;;;;;;;11.57;100.00;100688.52;4919155;57;1142782;-85
2024/02/16 20:49:16;;;;;;;18.55;10.13;;;;;;;11.57;100.00;100688.52;4938585;57;1142584;-86
2024/02/16 20:54:25;;;;;;;14.13;8.70;;;;;;;11.63;100.00;100706.56;4936660;57;1145029;-82
2024/02/16 20:59:31;;;;;;;21.37;11.57;;;;;;;11.66;100.00;100709.45;4966753;56;1143063;-80
2024/02/16 21:04:39;;;;;;;17.23;10.30;;;;;;;11.64;100.00;100709.57;4902778;57;1144848;-82
2024/02/16 21:09:46;;;;;;;17.10;10.03;;;;;;;11.62;100.00;100702.22;5193916;55;1144952;-84
2024/02/16 21:14:52;;;;;;;22.23;11.63;;;;;;;11.60;100.00;100703.70;5246545;55;1144990;-86
2024/02/16 21:19:57;;;;;;;26.73;13.93;;;;;;;11.59;100.00;100707.79;5187235;55;1144786;-82
2024/02/16 21:25:04;;;;;;;23.97;13.17;;;;;;;11.56;100.00;100710.19;5198078;55;1145186;-79
2024/02/16 21:30:12;;;;;;;19.90;11.83;;;;;;;11.55;100.00;100706.34;5103967;56;1144701;-82
2024/02/16 21:35:20;;;;;;;26.00;14.37;;;;;;;11.52;100.00;100711.39;5111481;55;1144853;-84
2024/02/16 21:40:26;;;;;;;21.47;13.30;;;;;;;11.52;100.00;100707.89;5169255;55;1145093;-82
2024/02/16 21:45:32;;;;;;;22.97;12.37;;;;;;;11.50;100.00;100711.14;5182832;55;1144895;-80
2024/02/16 21:50:37;;;;;;;22.50;10.13;;;;;;;11.49;100.00;100721.37;5187669;55;1144909;-84
2024/02/16 21:55:43;;;;;;;24.87;14.03;;;;;;;11.47;100.00;100715.34;5192398;55;1145128;-81
2024/02/16 22:00:49;;;;;;;33.93;19.17;;;;;;;11.44;100.00;100711.64;5187161;55;1145310;-82
2024/02/16 22:05:54;;;;;;;23.77;16.00;;;;;;;11.44;100.00;100715.13;5164013;55;1144946;-83
2024/02/16 22:11:00;;;;;;;32.53;17.87;;;;;;;11.45;100.00;100718.63;5169400;55;1144718;-85
2024/02/16 22:16:06;;;;;;;29.77;16.97;;;;;;;11.41;100.00;100725.11;5204830;55;1145056;-85
2024/02/16 22:21:13;;;;;;;25.60;15.27;;;;;;;11.36;100.00;100724.14;5208195;55;1144973;-85
2024/02/16 22:26:19;;;;;;;31.33;18.03;;;;;;;11.37;100.00;100731.60;5208131;55;1145111;-86
2024/02/16 22:31:25;;;;;;;29.15;16.37;;;;;;;11.35;100.00;100733.52;5222184;55;1144880;-81
2024/02/16 22:36:32;;;;;;;34.13;19.43;;;;;;;11.34;100.00;100738.45;5209157;55;1144856;-83
2024/02/16 22:41:37;;;;;;;25.97;15.45;;;;;;;11.33;100.00;100740.25;5184725;55;1144955;-85
2024/02/16 22:46:43;;;;;;;32.60;16.60;;;;;;;11.33;100.00;100742.06;5122999;56;1145009;-81
2024/02/16 22:51:48;;;;;;;27.57;14.93;;;;;;;11.32;100.00;100739.05;5142827;56;1145037;-82
2024/02/16 22:56:54;;;;;;;25.57;13.90;;;;;;;11.30;100.00;100747.14;5149804;55;1145042;-82
2024/02/16 23:02:00;;;;;;;33.13;16.10;;;;;;;11.31;100.00;100747.95;5203670;55;1145624;-85
2024/02/16 23:07:06;;;;;;;35.37;14.30;;;;;;;11.28;100.00;100744.61;5145005;55;1144819;-80
2024/02/16 23:12:12;;;;;;;44.47;16.07;;;;;;;11.26;100.00;100754.95;5115417;56;1144827;-83
2024/02/16 23:17:18;;;;;;;50.40;19.93;;;;;;;11.26;100.00;100754.47;5113176;56;1145085;-85
2024/02/16 23:22:23;;;;;;;44.53;15.67;;;;;;;11.24;100.00;100761.68;5126549;56;1145194;-83
2024/02/16 23:27:29;;;;;;;38.83;12.70;;;;;;;11.26;100.00;100761.09;5162820;55;1144996;-85
2024/02/16 23:32:35;;;;;;;26.60;11.27;;;;;;;11.28;100.00;100765.78;5198063;55;1144971;-80